Time;durP1;ratioP1;P1;durP2;ratioP2;P2;SDS_P1;SDS_P2;PMS_P1;PMS_P2;Temp;Humidity;BMP_temperature;BMP_pressure;BME280_temperature;BME280_humidity;BME280_pressure;Samples;Min_cycle;Max_cycle;Signal;HPM_P1;HPM_P2
2023/01/09 00:02:00;;;;;;;24.27;11.57;;;;;;;0.60;100.00;97485.88;4965835;28;20098;-57
2023/01/09 00:04:27;;;;;;;25.48;12.80;;;;;;;0.69;100.00;97481.38;4965442;28;20055;-52
2023/01/09 00:06:54;;;;;;;26.45;14.07;;;;;;;0.26;100.00;97418.00;4965280;28;20065;-51
2023/01/09 00:09:23;;;;;;;27.27;15.95;;;;;;;0.65;100.00;97486.59;4965386;28;20433;-53
2023/01/09 00:11:50;;;;;;;30.42;17.50;;;;;;;0.51;99.53;97469.38;4965097;28;20051;-51
2023/01/09 00:14:18;;;;;;;33.30;17.55;;;;;;;0.51;98.30;97455.75;4965007;28;20070;-53
2023/01/09 00:16:45;;;;;;;27.35;15.13;;;;;;;0.63;98.78;97485.28;4965573;28;20055;-55
2023/01/09 00:19:12;;;;;;;33.85;17.13;;;;;;;0.03;98.29;97401.72;4963931;28;20058;-51
2023/01/09 00:21:39;;;;;;;26.70;16.08;;;;;;;0.56;99.08;97488.38;4965391;28;20137;-56
2023/01/09 00:24:06;;;;;;;28.75;15.52;;;;;;;0.58;98.83;97486.19;4964031;28;20516;-52
2023/01/09 00:26:34;;;;;;;33.13;17.45;;;;;;;0.48;99.19;97472.69;4965176;28;20133;-56
2023/01/09 00:29:01;;;;;;;31.70;16.25;;;;;;;0.57;99.20;97479.09;4965646;28;20247;-51
2023/01/09 00:31:27;;;;;;;33.05;16.70;;;;;;;0.60;98.23;97475.75;4965125;28;20047;-53
2023/01/09 00:33:59;;;;;;;35.40;15.75;;;;;;;0.62;97.62;97473.56;4965922;28;20082;-52
2023/01/09 00:36:26;;;;;;;32.58;15.82;;;;;;;0.62;97.55;97473.56;4963768;28;20510;-58
2023/01/09 00:38:53;;;;;;;27.80;15.82;;;;;;;0.45;96.76;97443.31;4965285;28;20133;-55
2023/01/09 00:41:25;;;;;;;29.15;15.68;;;;;;;0.55;96.99;97472.31;4965237;28;20194;-51
2023/01/09 00:43:55;;;;;;;31.38;14.50;;;;;;;0.49;97.13;97477.03;4965489;28;20085;-57
2023/01/09 00:46:29;;;;;;;25.90;13.68;;;;;;;0.11;96.87;97415.50;4965113;28;20053;-56
2023/01/09 00:48:57;;;;;;;27.13;13.43;;;;;;;0.28;97.41;97426.69;4965399;28;20158;-53
2023/01/09 00:51:24;;;;;;;28.05;13.25;;;;;;;0.27;97.85;97419.59;4964687;28;20059;-56
2023/01/09 00:53:51;;;;;;;28.90;14.20;;;;;;;0.34;98.44;97436.41;4965247;28;20093;-57
2023/01/09 00:56:19;;;;;;;27.75;13.85;;;;;;;0.58;97.33;97464.38;4963232;28;20051;-57
2023/01/09 00:58:47;;;;;;;24.73;12.43;;;;;;;0.59;96.96;97455.09;4965467;28;20051;-56
2023/01/09 01:01:14;;;;;;;20.17;10.73;;;;;;;-1.94;96.83;97058.34;4965008;28;20602;-56
2023/01/09 01:03:41;;;;;;;22.55;11.77;;;;;;;0.60;97.35;97466.81;4965639;28;20396;-52
2023/01/09 01:08:54;;;;;;;37.95;18.02;;;;;;;0.38;96.84;97463.88;4965028;28;20098;-57
2023/01/09 01:11:22;;;;;;;38.22;18.98;;;;;;;0.01;96.68;97426.53;4963016;28;20058;-56
2023/01/09 01:13:49;;;;;;;45.22;22.10;;;;;;;-0.61;96.60;97410.47;4965148;28;20101;-53
2023/01/09 01:16:17;;;;;;;40.17;18.75;;;;;;;-0.71;97.22;97376.03;4965357;28;20054;-52
2023/01/09 01:18:44;;;;;;;41.50;20.25;;;;;;;-0.49;96.87;97427.19;4968510;28;20055;-57
2023/01/09 01:21:12;;;;;;;38.50;18.73;;;;;;;-0.25;97.51;97447.00;4967891;28;20162;-56
2023/01/09 01:23:39;;;;;;;40.92;17.80;;;;;;;-0.11;95.05;97446.00;4967182;28;20051;-53
2023/01/09 01:26:14;;;;;;;37.03;16.48;;;;;;;-2.60;93.91;97032.25;4968114;28;20059;-55
2023/01/09 01:28:41;;;;;;;34.80;16.23;;;;;;;-0.19;94.23;97437.72;4968248;28;20086;-57
2023/01/09 01:31:15;;;;;;;37.42;17.02;;;;;;;-0.17;95.22;97443.66;4967691;28;20058;-57
2023/01/09 01:33:41;;;;;;;41.55;18.20;;;;;;;-0.23;94.86;97442.09;4968698;28;20047;-53
2023/01/09 01:36:09;;;;;;;31.90;16.08;;;;;;;-0.16;94.56;97437.13;4967756;28;20062;-52
2023/01/09 01:38:35;;;;;;;38.33;17.23;;;;;;;-0.52;94.18;97400.56;4968450;28;20562;-58
2023/01/09 01:41:03;;;;;;;33.30;16.38;;;;;;;-0.54;94.21;97435.41;4968104;28;20055;-53
2023/01/09 01:43:50;;;;;;;28.42;16.17;;;;;;;-0.65;95.24;97428.47;4968153;28;20057;-57
2023/01/09 01:46:17;;;;;;;32.08;15.25;;;;;;;-0.72;96.28;97444.31;4967423;28;20141;-56
2023/01/09 01:48:47;;;;;;;33.25;16.00;;;;;;;-0.61;95.91;97415.91;4967960;28;20047;-57
2023/01/09 01:51:17;;;;;;;30.17;16.48;;;;;;;-0.54;96.45;97421.81;4967579;28;20054;-53
2023/01/09 01:53:49;;;;;;;32.95;17.45;;;;;;;-1.20;96.05;97312.19;4968154;28;20061;-56
2023/01/09 01:56:18;;;;;;;30.05;15.35;;;;;;;-0.64;96.25;97408.31;4967457;28;20093;-56
2023/01/09 01:59:02;;;;;;;30.75;15.25;;;;;;;-0.67;96.83;97398.03;4967883;28;20490;-54
2023/01/09 02:01:29;;;;;;;35.25;15.95;;;;;;;-0.67;97.18;97393.41;4967875;28;20055;-57
2023/01/09 02:04:00;;;;;;;34.28;15.75;;;;;;;-0.45;97.77;97403.72;4967382;28;20058;-56
2023/01/09 02:06:28;;;;;;;36.50;16.92;;;;;;;-0.38;97.70;97401.47;4967422;28;20086;-53
2023/01/09 02:08:56;;;;;;;32.65;15.25;;;;;;;-0.42;96.82;97389.53;4967617;28;20062;-57
2023/01/09 02:11:23;;;;;;;29.90;14.65;;;;;;;-0.98;98.79;97396.75;4967008;28;20112;-54
2023/01/09 02:13:51;;;;;;;33.22;14.05;;;;;;;-1.59;100.00;97405.47;4967135;28;20618;-52
2023/01/09 02:16:29;;;;;;;34.80;15.65;;;;;;;-1.74;100.00;97400.16;4967084;28;20059;-57
2023/01/09 02:19:43;;;;;;;31.60;14.43;;;;;;;-1.34;100.00;97401.72;4968066;28;20084;-56
2023/01/09 02:22:31;;;;;;;28.35;14.23;;;;;;;-1.35;99.19;97399.28;4963517;28;20090;-56
2023/01/09 02:25:21;;;;;;;32.20;14.63;;;;;;;-1.47;98.88;97401.56;4967677;28;20144;-52
2023/01/09 02:28:21;;;;;;;23.02;12.50;;;;;;;-1.37;99.04;97399.56;4965858;28;20090;-56
2023/01/09 02:30:50;;;;;;;27.15;12.85;;;;;;;-1.34;98.09;97395.50;4967371;28;20570;-56
2023/01/09 02:33:17;;;;;;;26.25;12.20;;;;;;;-1.27;96.94;97388.63;4966805;28;20132;-53
2023/01/09 02:36:17;;;;;;;31.27;13.95;;;;;;;-1.22;96.70;97396.72;4966700;28;20101;-56
2023/01/09 02:39:24;;;;;;;27.55;11.07;;;;;;;-1.23;96.78;97383.44;2595557;28;10021678;-52
2023/01/09 02:42:02;;;;;;;24.20;12.55;;;;;;;-1.17;96.80;97383.06;4898532;28;20351;-52
2023/01/09 02:44:32;;;;;;;28.20;12.75;;;;;;;-1.12;97.68;97390.38;4947878;28;20059;-55
2023/01/09 02:47:07;;;;;;;35.72;14.98;;;;;;;-0.99;97.08;97378.81;4945682;29;20118;-53
2023/01/09 02:49:37;;;;;;;35.42;16.58;;;;;;;-0.99;97.87;97376.09;4947346;28;20407;-54
2023/01/09 02:52:39;;;;;;;39.65;17.38;;;;;;;-0.98;97.70;97375.78;4947222;28;20506;-55
2023/01/09 02:55:17;;;;;;;106.07;36.60;;;;;;;-1.00;98.12;97377.19;4941612;28;20138;-56
2023/01/09 02:58:09;;;;;;;52.80;22.75;;;;;;;-0.95;98.38;97379.88;4928448;28;20143;-56
2023/01/09 03:00:35;;;;;;;55.33;21.02;;;;;;;-0.97;98.98;97366.56;4928514;29;20106;-56
2023/01/09 03:03:08;;;;;;;50.65;22.67;;;;;;;-0.87;99.20;97368.34;4927767;29;20055;-57
2023/01/09 03:06:04;;;;;;;73.53;28.60;;;;;;;-0.79;98.65;97367.72;4928159;29;20056;-56
2023/01/09 03:08:40;;;;;;;49.92;22.98;;;;;;;-1.26;99.21;97275.28;4927834;29;20609;-56
2023/01/09 03:11:08;;;;;;;60.63;21.83;;;;;;;-0.75;100.00;97363.31;4928049;29;20114;-57
2023/01/09 03:13:49;;;;;;;57.33;24.35;;;;;;;-0.61;100.00;97365.03;4927684;29;20067;-55
2023/01/09 03:16:36;;;;;;;61.42;23.33;;;;;;;-0.59;100.00;97353.88;4927951;29;20493;-54
2023/01/09 03:19:08;;;;;;;57.40;21.85;;;;;;;-1.63;100.00;97189.88;4942030;28;20063;-53
2023/01/09 03:21:36;;;;;;;52.70;19.40;;;;;;;-1.08;100.00;97299.81;4927955;29;20051;-56
2023/01/09 03:24:03;;;;;;;33.03;15.32;;;;;;;-0.82;99.74;97343.84;4927630;29;20111;-52
2023/01/09 03:26:30;;;;;;;29.52;13.73;;;;;;;-0.61;98.22;97353.34;4927906;29;20055;-57
2023/01/09 03:28:58;;;;;;;31.02;14.57;;;;;;;-0.62;98.17;97357.16;4943446;29;20195;-52
2023/01/09 03:31:25;;;;;;;32.13;15.07;;;;;;;-0.55;96.50;97373.94;4946598;28;20117;-54
2023/01/09 03:33:52;;;;;;;42.85;16.50;;;;;;;-0.55;96.48;97357.59;4946799;28;20062;-52
2023/01/09 03:36:20;;;;;;;27.65;14.02;;;;;;;-0.63;95.71;97361.78;4947153;28;20067;-53
2023/01/09 03:38:47;;;;;;;35.42;13.90;;;;;;;-0.52;95.07;97360.56;4946773;28;20454;-55
2023/01/09 03:41:13;;;;;;;29.13;14.25;;;;;;;-0.64;94.35;97337.59;4946925;28;20126;-56
2023/01/09 03:43:40;;;;;;;26.42;12.95;;;;;;;-0.35;94.71;97357.34;4946179;28;20090;-56
2023/01/09 03:46:06;;;;;;;28.42;12.73;;;;;;;-0.33;94.85;97355.13;4946712;28;20078;-56
2023/01/09 03:48:33;;;;;;;53.83;30.45;;;;;;;-0.27;95.37;97359.44;4946546;28;20078;-53
2023/01/09 03:51:00;;;;;;;68.88;41.15;;;;;;;-0.07;94.63;97353.69;4946391;28;20525;-55
2023/01/09 03:53:27;;;;;;;79.65;47.90;;;;;;;0.03;95.69;97359.00;4939922;29;20090;-57
2023/01/09 03:55:56;;;;;;;63.28;38.47;;;;;;;0.08;95.44;97358.88;4927396;29;20098;-53
2023/01/09 03:58:23;;;;;;;34.50;19.02;;;;;;;0.05;95.28;97362.19;4926973;29;20085;-54
2023/01/09 04:00:51;;;;;;;35.20;18.75;;;;;;;0.18;94.38;97366.91;4927426;29;20075;-53
2023/01/09 04:03:19;;;;;;;33.33;16.15;;;;;;;0.13;94.33;97334.31;4925814;29;20062;-56
2023/01/09 04:05:48;;;;;;;39.78;18.10;;;;;;;0.42;94.14;97364.06;4927050;29;20714;-57
2023/01/09 04:08:15;;;;;;;43.17;17.23;;;;;;;0.05;93.34;97302.31;4926870;29;20581;-57
2023/01/09 04:10:47;;;;;;;133.68;41.30;;;;;;;0.16;93.50;97311.13;4925778;29;20055;-57
2023/01/09 04:13:13;;;;;;;133.40;44.67;;;;;;;0.71;91.43;97354.56;4926883;29;20075;-53
2023/01/09 04:15:40;;;;;;;229.35;70.70;;;;;;;0.30;90.62;97301.88;4927224;29;20052;-56
2023/01/09 04:18:07;;;;;;;404.95;101.32;;;;;;;0.81;91.07;97369.94;4927284;29;20061;-57
2023/01/09 04:20:33;;;;;;;280.27;71.60;;;;;;;0.86;91.81;97367.94;4927111;29;20052;-57
2023/01/09 04:23:00;;;;;;;238.98;64.50;;;;;;;0.92;92.37;97374.91;4927131;29;20055;-52
2023/01/09 04:25:27;;;;;;;146.32;44.60;;;;;;;0.57;92.59;97321.03;4925374;29;20083;-52
2023/01/09 04:27:54;;;;;;;86.28;38.38;;;;;;;1.02;92.73;97365.72;4932800;29;20055;-57
2023/01/09 04:30:20;;;;;;;66.25;28.95;;;;;;;1.04;92.77;97377.94;4945578;28;20142;-56
2023/01/09 04:32:47;;;;;;;62.58;27.92;;;;;;;1.11;92.54;97378.38;4952146;28;20154;-57
2023/01/09 04:35:14;;;;;;;46.25;21.50;;;;;;;1.22;92.74;97374.34;4964140;28;20576;-56
2023/01/09 04:37:40;;;;;;;32.78;16.80;;;;;;;1.13;93.46;97357.06;4965310;28;20094;-52
2023/01/09 04:40:09;;;;;;;32.10;15.40;;;;;;;0.80;93.59;97287.34;4965309;28;20142;-52
2023/01/09 04:42:36;;;;;;;99.70;31.27;;;;;;;1.16;93.45;97372.81;4965327;28;20187;-57
2023/01/09 04:45:05;;;;;;;79.78;27.48;;;;;;;1.09;92.95;97377.84;4964588;28;20137;-56
2023/01/09 04:47:32;;;;;;;88.38;29.05;;;;;;;0.09;93.55;97199.88;4965337;28;20051;-53
2023/01/09 04:49:59;;;;;;;106.50;33.65;;;;;;;1.40;92.19;97368.00;4963494;28;20051;-56
2023/01/09 04:52:26;;;;;;;94.47;30.95;;;;;;;1.42;91.70;97371.19;4967862;28;20437;-57
2023/01/09 04:54:53;;;;;;;93.38;31.75;;;;;;;1.47;91.81;97373.81;4968759;28;20059;-57
2023/01/09 04:57:20;;;;;;;142.10;42.35;;;;;;;1.49;91.45;97377.06;4968370;28;20082;-52
2023/01/09 04:59:47;;;;;;;160.40;45.17;;;;;;;1.61;89.51;97373.03;4967447;28;20113;-52
2023/01/09 05:02:13;;;;;;;145.35;45.90;;;;;;;1.49;88.88;97344.31;4968179;28;20051;-53
2023/01/09 05:04:40;;;;;;;145.68;47.88;;;;;;;-1.43;88.69;96851.25;4949340;29;20426;-52
2023/01/09 05:07:07;;;;;;;169.00;52.95;;;;;;;1.68;88.59;97362.47;4949310;28;20059;-57
2023/01/09 05:09:34;;;;;;;166.60;53.63;;;;;;;1.61;88.59;97341.09;4949649;28;20058;-54
2023/01/09 05:12:02;;;;;;;142.95;50.28;;;;;;;1.50;88.98;97328.75;4949345;29;20055;-56
2023/01/09 05:14:28;;;;;;;127.85;43.47;;;;;;;1.73;89.83;97359.66;4948917;28;20067;-53
2023/01/09 05:16:55;;;;;;;115.95;43.97;;;;;;;1.65;89.99;97336.59;4963856;28;20118;-58
2023/01/09 05:19:22;;;;;;;129.10;44.28;;;;;;;1.78;89.96;97360.34;4949079;28;20106;-53
2023/01/09 05:21:49;;;;;;;123.93;41.20;;;;;;;1.54;89.89;97314.19;4948952;29;20143;-57
2023/01/09 05:24:15;;;;;;;120.28;39.03;;;;;;;1.98;90.37;97356.34;4963962;28;20466;-54
2023/01/09 05:26:42;;;;;;;95.40;34.70;;;;;;;1.94;89.39;97356.19;4949216;28;20051;-56
2023/01/09 05:29:09;;;;;;;102.05;34.35;;;;;;;1.72;90.01;97347.94;4966669;28;20125;-54
2023/01/09 05:31:36;;;;;;;78.25;31.73;;;;;;;1.82;90.84;97346.91;4968007;28;20058;-58
2023/01/09 05:34:02;;;;;;;63.00;29.02;;;;;;;1.97;89.43;97355.56;4967932;28;20059;-56
2023/01/09 05:36:29;;;;;;;58.35;26.85;;;;;;;1.97;89.70;97365.66;4967476;28;20121;-57
2023/01/09 05:38:56;;;;;;;41.50;21.40;;;;;;;1.91;89.09;97334.13;4968449;28;20055;-57
2023/01/09 05:41:25;;;;;;;46.88;21.42;;;;;;;1.99;89.88;97358.78;4968270;28;20058;-58
2023/01/09 05:43:51;;;;;;;49.70;21.17;;;;;;;1.96;90.45;97350.41;4968514;28;20055;-57
2023/01/09 05:46:18;;;;;;;64.30;30.08;;;;;;;1.97;91.20;97350.09;4967797;28;20466;-53
2023/01/09 05:48:45;;;;;;;87.40;38.97;;;;;;;2.03;91.35;97343.41;4973409;28;20046;-58
2023/01/09 05:51:12;;;;;;;109.72;47.90;;;;;;;2.06;92.12;97342.78;4986713;28;20720;-57
2023/01/09 05:53:38;;;;;;;86.13;40.67;;;;;;;1.99;92.22;97341.59;4987313;28;20062;-57
2023/01/09 05:56:05;;;;;;;77.47;35.17;;;;;;;2.07;92.76;97344.38;4986731;28;20085;-58
2023/01/09 05:58:32;;;;;;;73.07;34.70;;;;;;;2.17;92.81;97348.81;4986802;28;20085;-59
2023/01/09 06:00:59;;;;;;;81.00;33.58;;;;;;;2.29;93.12;97346.34;4987011;28;20058;-53
2023/01/09 06:03:25;;;;;;;66.57;30.33;;;;;;;2.27;92.43;97326.72;4986947;28;20141;-54
2023/01/09 06:05:52;;;;;;;57.63;25.73;;;;;;;2.41;92.29;97349.31;4987113;28;20480;-58
2023/01/09 06:08:19;;;;;;;54.72;24.73;;;;;;;1.89;92.56;97257.16;4985726;28;20484;-54
2023/01/09 06:10:46;;;;;;;50.53;23.88;;;;;;;2.53;92.80;97346.84;4986776;28;20638;-54
2023/01/09 06:13:13;;;;;;;47.85;23.13;;;;;;;2.54;92.94;97340.25;4978017;28;20161;-56
2023/01/09 06:15:40;;;;;;;49.60;22.88;;;;;;;1.83;92.99;97218.25;4947740;29;20089;-57
2023/01/09 06:18:07;;;;;;;65.07;31.05;;;;;;;2.67;93.60;97344.84;4947958;29;20048;-57
2023/01/09 06:20:34;;;;;;;59.53;28.83;;;;;;;2.79;93.51;97350.56;4947995;28;20144;-52
2023/01/09 06:23:00;;;;;;;48.08;27.23;;;;;;;0.41;92.56;96940.19;4947915;29;20121;-57
2023/01/09 06:25:27;;;;;;;61.95;30.30;;;;;;;2.97;92.59;97341.34;4962245;28;20059;-57
2023/01/09 06:27:53;;;;;;;60.78;30.75;;;;;;;2.69;92.76;97291.44;4949254;28;20051;-54
2023/01/09 06:30:20;;;;;;;54.38;26.80;;;;;;;3.04;93.19;97341.66;4966894;28;20142;-58
2023/01/09 06:32:48;;;;;;;44.55;22.02;;;;;;;3.15;92.43;97332.06;4966815;28;20093;-57
2023/01/09 06:35:19;;;;;;;39.50;18.88;;;;;;;2.98;93.36;97319.13;4965920;28;20792;-52
2023/01/09 06:37:48;;;;;;;40.05;19.83;;;;;;;3.28;92.39;97339.38;4965946;28;20052;-58
2023/01/09 06:40:16;;;;;;;47.83;23.50;;;;;;;3.02;91.74;97289.19;4966793;28;20061;-54
2023/01/09 06:42:44;;;;;;;45.90;23.83;;;;;;;3.10;92.56;97296.63;4966687;28;20549;-53
2023/01/09 06:45:12;;;;;;;51.67;24.35;;;;;;;2.90;91.90;97276.13;4965447;28;20063;-57
2023/01/09 06:47:39;;;;;;;59.38;24.98;;;;;;;3.16;92.09;97336.44;4966845;28;20054;-58
2023/01/09 06:50:08;;;;;;;69.43;29.05;;;;;;;3.17;92.06;97316.13;4985251;28;20146;-54
2023/01/09 06:52:35;;;;;;;81.88;31.60;;;;;;;3.26;91.66;97316.97;4965907;28;20051;-59
2023/01/09 06:55:02;;;;;;;78.68;31.17;;;;;;;3.38;91.76;97313.63;4962178;28;20345;-52
2023/01/09 06:57:29;;;;;;;69.13;29.15;;;;;;;3.58;90.00;97324.81;4958529;28;20531;-53
2023/01/09 06:59:56;;;;;;;105.10;38.65;;;;;;;3.44;90.14;97307.69;4956380;28;20050;-52
2023/01/09 07:02:24;;;;;;;82.90;33.10;;;;;;;3.52;90.92;97320.63;4963411;28;20061;-53
2023/01/09 07:04:50;;;;;;;76.65;33.13;;;;;;;3.68;89.65;97319.03;4952231;28;20059;-55
2023/01/09 07:07:18;;;;;;;58.75;27.63;;;;;;;2.98;89.55;97200.66;4978167;28;20109;-56
2023/01/09 07:09:45;;;;;;;49.63;24.55;;;;;;;3.61;90.24;97315.13;4964305;28;20513;-55
2023/01/09 07:12:13;;;;;;;49.85;23.50;;;;;;;3.55;90.50;97287.09;4964948;28;20138;-53
2023/01/09 07:14:40;;;;;;;46.28;23.00;;;;;;;3.79;90.09;97309.41;4964701;28;20059;-57
2023/01/09 07:17:08;;;;;;;49.58;24.25;;;;;;;3.80;90.47;97311.00;4965081;28;20121;-55
2023/01/09 07:19:35;;;;;;;42.92;21.45;;;;;;;3.80;90.29;97293.75;4974651;28;20050;-57
2023/01/09 07:22:02;;;;;;;35.20;19.60;;;;;;;3.86;91.24;97306.97;4974142;28;20050;-57
2023/01/09 07:24:28;;;;;;;43.65;22.25;;;;;;;3.91;91.05;97309.56;4982875;28;20117;-53
2023/01/09 07:26:55;;;;;;;44.47;23.52;;;;;;;4.05;91.31;97306.66;4969503;28;20110;-55
2023/01/09 07:29:22;;;;;;;42.88;22.13;;;;;;;4.12;91.51;97307.81;4965272;28;20117;-53
2023/01/09 07:31:48;;;;;;;45.60;22.92;;;;;;;3.80;91.07;97250.72;4964958;28;20137;-54
2023/01/09 07:34:15;;;;;;;65.90;31.63;;;;;;;4.26;91.43;97308.44;4965429;28;20050;-53
2023/01/09 07:36:45;;;;;;;57.00;31.02;;;;;;;4.01;90.79;97257.19;4970735;28;20137;-54
2023/01/09 07:39:12;;;;;;;58.85;32.80;;;;;;;4.43;90.62;97294.72;4979503;28;20058;-58
2023/01/09 07:41:39;;;;;;;47.72;25.58;;;;;;;4.41;90.21;97294.22;4961414;28;20049;-53
2023/01/09 07:44:06;;;;;;;56.58;27.27;;;;;;;4.43;90.24;97281.00;4961982;28;20670;-59
2023/01/09 07:46:36;;;;;;;59.72;26.00;;;;;;;4.26;89.95;97253.63;4965506;28;20057;-53
2023/01/09 07:49:03;;;;;;;55.03;25.92;;;;;;;4.66;90.01;97290.63;4978262;28;20057;-57
2023/01/09 07:51:29;;;;;;;89.32;41.88;;;;;;;3.97;89.56;97228.78;4960254;28;20047;-53
2023/01/09 07:53:56;;;;;;;84.45;41.70;;;;;;;4.61;89.18;97285.34;4971741;28;20545;-58
2023/01/09 07:56:23;;;;;;;66.97;36.78;;;;;;;4.48;88.81;97291.00;4964789;28;20066;-53
2023/01/09 07:58:49;;;;;;;70.35;30.75;;;;;;;4.26;90.93;97270.06;4975237;28;20061;-54
2023/01/09 08:01:16;;;;;;;57.17;26.60;;;;;;;4.41;90.24;97271.50;4977365;28;20147;-56
2023/01/09 08:03:43;;;;;;;56.65;26.40;;;;;;;4.64;89.67;97281.13;4976204;28;20050;-59
2023/01/09 08:06:09;;;;;;;64.18;27.55;;;;;;;4.83;88.81;97288.97;4974620;28;20177;-52
2023/01/09 08:08:36;;;;;;;68.43;26.63;;;;;;;4.68;88.57;97254.63;4964863;28;20457;-58
2023/01/09 08:11:03;;;;;;;61.72;30.70;;;;;;;4.92;88.53;97284.25;4963812;28;20086;-57
2023/01/09 08:13:29;;;;;;;59.53;27.52;;;;;;;4.96;88.15;97268.75;4972847;28;20481;-56
2023/01/09 08:15:56;;;;;;;58.88;25.00;;;;;;;5.31;86.35;97275.72;4962943;28;20043;-54
2023/01/09 08:18:23;;;;;;;55.85;25.83;;;;;;;5.33;86.39;97282.47;4964089;28;20576;-54
2023/01/09 08:20:49;;;;;;;49.75;25.35;;;;;;;5.21;86.67;97249.44;4962517;28;20146;-56
2023/01/09 08:23:16;;;;;;;47.97;24.80;;;;;;;5.50;86.67;97287.09;4979968;28;20082;-58
2023/01/09 08:25:43;;;;;;;61.53;27.33;;;;;;;5.52;86.08;97273.81;4966594;28;20386;-52
2023/01/09 08:28:09;;;;;;;71.32;35.50;;;;;;;5.16;84.68;97202.13;4979382;28;20082;-55
2023/01/09 08:30:37;;;;;;;125.25;50.08;;;;;;;5.79;84.84;97281.56;4973254;28;20125;-54
2023/01/09 08:33:04;;;;;;;243.23;89.88;;;;;;;5.83;83.88;97285.31;4966757;28;20333;-53
2023/01/09 08:35:31;;;;;;;140.70;73.50;;;;;;;5.47;84.37;97217.13;4964966;28;20461;-58
2023/01/09 08:37:58;;;;;;;108.30;56.30;;;;;;;5.48;83.48;97195.97;4977127;28;20518;-55
2023/01/09 08:40:24;;;;;;;111.65;56.38;;;;;;;6.04;82.91;97277.84;4966135;28;20098;-55
2023/01/09 08:48:21;;;;;;;80.47;42.15;;;;;;;6.21;82.81;97274.97;4975644;28;20051;-60
2023/01/09 08:50:48;;;;;;;80.93;42.15;;;;;;;6.02;83.27;97274.66;4973336;28;20581;-62
2023/01/09 08:53:14;;;;;;;85.70;43.40;;;;;;;5.80;85.36;97269.44;4972295;28;21530;-59
2023/01/09 08:55:41;;;;;;;85.18;45.15;;;;;;;3.48;84.24;96856.91;4981162;28;20403;-60
2023/01/09 08:58:08;;;;;;;67.82;36.05;;;;;;;6.07;84.26;97257.94;4972641;28;20050;-56
2023/01/09 09:00:35;;;;;;;47.67;24.95;;;;;;;6.18;84.38;97251.69;4978238;28;20042;-61
2023/01/09 09:03:01;;;;;;;36.47;22.65;;;;;;;6.07;84.88;97247.75;4971546;28;20038;-57
2023/01/09 09:05:30;;;;;;;36.92;21.55;;;;;;;5.52;85.74;97262.81;4980255;28;20101;-54
2023/01/09 09:07:57;;;;;;;38.17;20.60;;;;;;;5.31;90.38;97242.75;4966825;28;20581;-60
2023/01/09 09:10:27;;;;;;;39.78;21.88;;;;;;;5.78;89.72;97239.56;4975030;28;20151;-58
2023/01/09 09:12:56;;;;;;;35.45;19.27;;;;;;;5.69;89.19;97229.75;4969610;28;20043;-60
2023/01/09 09:15:24;;;;;;;34.60;19.95;;;;;;;5.13;89.98;97206.34;4967255;28;20051;-53
2023/01/09 09:17:53;;;;;;;39.22;22.20;;;;;;;3.62;89.44;96882.13;4966336;28;20050;-54
2023/01/09 09:20:22;;;;;;;40.83;21.45;;;;;;;5.86;88.58;97194.69;4958785;28;20063;-66
2023/01/09 09:22:49;;;;;;;32.95;19.88;;;;;;;6.09;88.11;97206.16;4967803;28;20059;-53
2023/01/09 09:25:17;;;;;;;36.92;18.90;;;;;;;5.78;87.93;97139.78;4975139;28;20110;-58
2023/01/09 09:27:44;;;;;;;36.72;20.75;;;;;;;6.27;87.21;97199.38;4967240;28;20074;-59
2023/01/09 09:30:12;;;;;;;48.72;23.85;;;;;;;6.49;86.21;97209.97;4968832;28;20069;-61
2023/01/09 09:32:39;;;;;;;65.35;26.73;;;;;;;6.42;85.77;97184.97;4966057;28;20131;-61
2023/01/09 09:35:07;;;;;;;62.65;29.60;;;;;;;6.44;84.82;97166.16;4954956;28;20058;-55
2023/01/09 09:37:33;;;;;;;49.03;23.92;;;;;;;6.54;85.44;97201.50;4968267;28;20086;-62
2023/01/09 09:40:00;;;;;;;48.55;23.55;;;;;;;6.16;83.69;97115.69;4975515;28;20086;-56
2023/01/09 09:45:42;;;;;;;40.10;20.75;;;;;;;6.15;85.46;97166.31;4977116;28;20058;-58
2023/01/09 09:48:52;;;;;;;36.08;19.35;;;;;;;6.52;84.97;97192.78;4977381;28;20058;-64
2023/01/09 09:51:48;;;;;;;50.17;25.08;;;;;;;6.59;85.25;97187.50;4970484;28;20097;-62
2023/01/09 09:54:24;;;;;;;63.13;30.80;;;;;;;6.39;85.89;97140.81;4965035;28;20058;-55
2023/01/09 09:56:55;;;;;;;54.13;26.48;;;;;;;6.69;85.63;97170.56;4966037;28;20051;-59
2023/01/09 09:59:25;;;;;;;50.85;25.88;;;;;;;5.84;86.03;97045.84;4966552;28;20055;-64
2023/01/09 10:01:57;;;;;;;44.80;24.70;;;;;;;6.40;87.40;97168.00;4971511;28;20074;-61
2023/01/09 10:04:27;;;;;;;55.63;29.25;;;;;;;5.93;89.97;97166.69;4968659;28;20141;-61
2023/01/09 10:06:59;;;;;;;50.88;26.90;;;;;;;6.28;89.51;97236.72;4964933;28;20593;-53
2023/01/09 10:09:54;;;;;;;52.85;25.38;;;;;;;6.50;87.75;97162.03;4965423;28;20556;-57
2023/01/09 10:12:21;;;;;;;51.65;26.17;;;;;;;6.50;88.35;97163.97;4965433;28;20117;-60
2023/01/09 10:14:47;;;;;;;55.10;27.15;;;;;;;6.59;88.15;97162.75;4966489;28;20063;-56
2023/01/09 10:17:39;;;;;;;63.15;31.33;;;;;;;6.77;87.76;97155.91;4966682;28;20079;-55
2023/01/09 10:20:21;;;;;;;71.85;35.83;;;;;;;6.89;86.35;97142.13;4966849;28;20058;-55
2023/01/09 10:23:02;;;;;;;72.38;36.85;;;;;;;6.51;86.40;97075.63;4966485;28;20054;-62
2023/01/09 10:25:49;;;;;;;68.90;35.05;;;;;;;7.09;86.09;97135.72;4966450;28;20125;-64
2023/01/09 10:28:42;;;;;;;91.65;48.33;;;;;;;7.28;85.73;97133.16;4965263;28;20423;-58
2023/01/09 10:32:05;;;;;;;126.88;62.78;;;;;;;7.47;83.90;97138.88;4964985;28;20050;-55
2023/01/09 10:34:37;;;;;;;80.00;39.97;;;;;;;7.43;83.61;97121.41;4945740;28;20658;-56
2023/01/09 10:37:09;;;;;;;57.27;26.50;;;;;;;6.91;86.09;97119.75;4964988;28;20057;-58
2023/01/09 10:39:54;;;;;;;55.22;25.45;;;;;;;5.53;90.67;96985.03;4967655;28;20477;-60
2023/01/09 10:42:47;;;;;;;62.28;28.60;;;;;;;6.62;91.60;97111.75;4948474;28;20552;-54
2023/01/09 10:45:33;;;;;;;63.10;31.48;;;;;;;6.91;89.62;97117.81;4962805;28;20485;-61
2023/01/09 10:48:08;;;;;;;79.55;40.03;;;;;;;6.52;89.10;97027.69;4959638;28;20070;-64
2023/01/09 10:50:40;;;;;;;75.88;41.67;;;;;;;7.22;88.59;97095.19;4969216;28;20472;-63
2023/01/09 10:53:19;;;;;;;67.20;33.90;;;;;;;7.23;87.85;97091.25;4981347;28;20062;-59
2023/01/09 10:55:50;;;;;;;64.68;33.63;;;;;;;7.45;87.40;97105.34;4980582;28;20050;-62
2023/01/09 10:58:19;;;;;;;100.00;56.38;;;;;;;7.48;87.09;97101.88;4968037;28;20093;-61
2023/01/09 11:00:48;;;;;;;66.00;36.13;;;;;;;7.53;86.83;97101.66;4972223;28;20054;-65
2023/01/09 11:03:20;;;;;;;52.67;29.42;;;;;;;7.62;86.58;97105.06;4976723;28;20058;-56
2023/01/09 11:05:53;;;;;;;60.10;30.67;;;;;;;7.76;85.98;97098.34;4979475;28;20047;-56
2023/01/09 11:08:23;;;;;;;56.63;26.63;;;;;;;7.84;86.12;97089.13;4964930;28;20117;-62
2023/01/09 11:10:55;;;;;;;52.95;26.85;;;;;;;7.94;85.11;97094.13;4962753;28;20078;-56
2023/01/09 11:13:32;;;;;;;52.42;28.13;;;;;;;7.98;84.21;97084.00;4971154;28;20050;-61
2023/01/09 11:16:04;;;;;;;53.63;27.05;;;;;;;7.63;85.51;97051.50;4959386;28;20070;-66
2023/01/09 11:18:33;;;;;;;64.80;30.00;;;;;;;7.92;85.97;97090.94;4970097;28;20057;-54
2023/01/09 11:21:28;;;;;;;66.18;32.35;;;;;;;8.12;84.85;97084.38;4960977;28;20481;-63
2023/01/09 11:23:56;;;;;;;58.42;27.80;;;;;;;8.08;85.55;97087.03;4960136;28;20054;-57
2023/01/09 11:26:26;;;;;;;48.33;21.60;;;;;;;7.98;85.04;97061.94;4964839;28;20510;-62
2023/01/09 11:29:05;;;;;;;58.85;24.88;;;;;;;7.97;85.92;97090.66;4965027;28;20109;-57
2023/01/09 11:31:32;;;;;;;56.20;26.27;;;;;;;7.35;86.14;96962.53;4971087;28;21302;-56
2023/01/09 11:33:59;;;;;;;61.42;27.30;;;;;;;7.99;86.08;97063.53;4965194;28;20584;-61
2023/01/09 11:36:26;;;;;;;58.60;25.80;;;;;;;8.09;86.39;97085.09;4963174;28;20050;-61
2023/01/09 11:38:55;;;;;;;53.85;24.88;;;;;;;8.02;86.08;97054.53;4976661;28;20721;-55
2023/01/09 11:41:33;;;;;;;82.07;39.95;;;;;;;8.11;86.03;97066.25;4974133;28;20055;-63
2023/01/09 11:44:02;;;;;;;41.13;19.08;;;;;;;7.51;86.61;96982.69;4964551;28;20053;-55
2023/01/09 11:46:40;;;;;;;63.17;28.63;;;;;;;7.89;87.92;97058.56;4965004;28;20486;-64
2023/01/09 11:49:21;;;;;;;58.83;27.88;;;;;;;8.09;87.47;97052.00;4964869;28;20453;-64